Time;durP1;ratioP1;P1;durP2;ratioP2;P2;SDS_P1;SDS_P2;PMS_P1;PMS_P2;Temp;Humidity;BMP_temperature;BMP_pressure;BME280_temperature;BME280_humidity;BME280_pressure;Samples;Min_cycle;Max_cycle;Signal;HPM_P1;HPM_P2
2023/04/27 00:01:53;;;;;;;126.10;53.90;;;;;;;6.15;100.00;98644.98;106086;1256;61188;-70
2023/04/27 00:04:20;;;;;;;119.90;55.40;;;;;;;6.20;100.00;98646.58;106079;1257;75715;-71
2023/04/27 00:06:47;;;;;;;42.30;22.30;;;;;;;6.11;100.00;98642.41;106114;1255;69192;-73
2023/04/27 00:09:14;;;;;;;25.70;16.20;;;;;;;6.20;100.00;98641.99;105945;1259;70665;-71
2023/04/27 00:11:42;;;;;;;286.90;146.10;;;;;;;6.36;100.00;98639.42;105977;1253;61733;-72
2023/04/27 00:14:08;;;;;;;48.20;41.60;;;;;;;6.24;100.00;98638.14;105908;1257;61126;-71
2023/04/27 00:16:35;;;;;;;123.70;82.20;;;;;;;6.24;100.00;98640.91;105937;1257;75642;-73
2023/04/27 00:19:03;;;;;;;21.70;12.70;;;;;;;6.19;100.00;98631.90;105851;1253;68979;-71
2023/04/27 00:21:31;;;;;;;58.70;25.70;;;;;;;6.30;100.00;98632.57;105944;1258;73641;-71
2023/04/27 00:23:58;;;;;;;59.50;26.40;;;;;;;6.41;100.00;98635.16;105969;1257;62175;-72
2023/04/27 00:26:25;;;;;;;142.60;68.60;;;;;;;6.52;100.00;98637.69;105964;1259;61259;-74
2023/04/27 00:28:52;;;;;;;52.20;27.90;;;;;;;6.37;100.00;98644.70;106084;1254;75254;-71
2023/04/27 00:31:19;;;;;;;31.90;18.70;;;;;;;6.12;100.00;98643.33;105956;1257;69869;-76
2023/04/27 00:33:48;;;;;;;29.60;17.00;;;;;;;6.17;100.00;98642.00;105980;1257;73810;-70
2023/04/27 00:36:15;;;;;;;29.90;21.40;;;;;;;6.33;100.00;98649.98;105995;1253;61323;-70
2023/04/27 00:38:42;;;;;;;24.10;21.70;;;;;;;6.36;100.00;98653.44;106048;1255;61399;-72
2023/04/27 00:41:09;;;;;;;30.10;19.30;;;;;;;6.30;100.00;98653.58;105786;1259;75176;-72
2023/04/27 00:43:43;;;;;;;52.80;27.10;;;;;;;6.24;100.00;98650.52;106051;1256;68077;-70
2023/04/27 00:46:11;;;;;;;67.20;31.60;;;;;;;6.21;100.00;98650.42;105762;1255;71608;-71
2023/04/27 00:48:40;;;;;;;27.20;12.70;;;;;;;6.20;100.00;98652.06;106070;1256;61208;-71
2023/04/27 00:51:07;;;;;;;214.50;95.10;;;;;;;6.04;100.00;98650.52;106107;1256;61249;-78
2023/04/27 00:53:34;;;;;;;26.90;21.90;;;;;;;6.20;100.00;98652.05;105739;1259;75821;-71
2023/04/27 00:56:02;;;;;;;15.60;10.80;;;;;;;6.16;100.00;98653.35;105778;1262;67527;-71
2023/04/27 00:58:29;;;;;;;473.50;220.70;;;;;;;6.16;100.00;98650.94;105691;1261;72765;-71
2023/04/27 01:00:58;;;;;;;315.00;145.60;;;;;;;6.13;100.00;98655.33;105858;1257;61682;-71
2023/04/27 01:03:25;;;;;;;106.70;47.90;;;;;;;6.25;100.00;98659.39;105879;1255;61350;-71
2023/04/27 01:05:53;;;;;;;138.00;66.70;;;;;;;6.21;100.00;98660.71;105831;1258;75717;-75
2023/04/27 01:08:20;;;;;;;28.40;16.20;;;;;;;6.34;100.00;98666.89;105926;1259;68663;-74
2023/04/27 01:10:48;;;;;;;19.80;15.50;;;;;;;6.68;100.00;98668.00;105881;1256;72513;-71
2023/04/27 01:13:15;;;;;;;10.80;9.80;;;;;;;6.84;100.00;98669.92;105738;1253;62649;-77
2023/04/27 01:15:42;;;;;;;5.80;5.40;;;;;;;6.95;100.00;98673.40;105855;1254;61340;-72
2023/04/27 01:18:09;;;;;;;4.70;4.20;;;;;;;6.87;100.00;98668.88;105914;1254;75269;-72
2023/04/27 01:20:37;;;;;;;5.10;4.60;;;;;;;6.95;100.00;98670.36;105793;1259;67651;-70
2023/04/27 01:23:04;;;;;;;56.90;50.50;;;;;;;6.99;100.00;98669.38;105863;1255;73290;-72
2023/04/27 01:25:32;;;;;;;13.50;12.50;;;;;;;6.87;100.00;98665.73;105855;1258;61268;-71
2023/04/27 01:28:01;;;;;;;81.90;73.50;;;;;;;6.88;100.00;98671.41;105865;1257;61391;-71
2023/04/27 01:30:29;;;;;;;171.50;90.60;;;;;;;7.02;100.00;98675.88;105802;1254;74699;-72
2023/04/27 01:32:57;;;;;;;102.40;54.90;;;;;;;7.06;100.00;98675.86;105776;1259;68621;-72
2023/04/27 01:35:24;;;;;;;73.90;45.20;;;;;;;7.06;100.00;98679.96;105926;1257;71384;-73
2023/04/27 01:37:56;;;;;;;21.00;16.30;;;;;;;7.29;100.00;98687.48;106637;1254;61750;-73
2023/04/27 01:40:23;;;;;;;11.40;9.70;;;;;;;7.31;100.00;98688.30;108236;1253;61339;-73
2023/04/27 01:42:49;;;;;;;4.90;4.50;;;;;;;7.16;100.00;98689.83;106594;1252;74690;-73
2023/04/27 01:45:16;;;;;;;5.30;4.80;;;;;;;6.78;100.00;98697.43;106088;1256;66588;-74
2023/04/27 01:47:43;;;;;;;4.20;3.90;;;;;;;6.79;100.00;98694.34;106075;1257;73738;-71
2023/04/27 01:50:11;;;;;;;4.50;4.10;;;;;;;6.41;100.00;98694.07;106079;1254;62074;-71
2023/04/27 01:52:39;;;;;;;5.50;5.00;;;;;;;6.36;100.00;98691.23;105857;1257;61207;-72
2023/04/27 01:55:07;;;;;;;4.70;4.20;;;;;;;6.39;100.00;98688.33;105807;1259;74752;-72
2023/04/27 01:57:34;;;;;;;4.80;4.40;;;;;;;6.38;100.00;98694.35;106062;1254;68657;-72
2023/04/27 02:00:01;;;;;;;4.20;3.90;;;;;;;6.29;100.00;98688.73;105848;1260;73475;-73
2023/04/27 02:02:46;;;;;;;4.30;4.00;;;;;;;6.53;100.00;98680.88;105663;1257;61365;-75
2023/04/27 02:05:13;;;;;;;13.70;12.60;;;;;;;6.67;100.00;98678.21;105827;1259;61344;-72
2023/04/27 02:07:40;;;;;;;115.40;67.10;;;;;;;6.55;100.00;98678.76;105889;1254;75288;-72
2023/04/27 02:10:07;;;;;;;81.50;37.30;;;;;;;6.58;100.00;98684.45;105874;1258;69678;-72
2023/04/27 02:12:35;;;;;;;124.90;55.70;;;;;;;6.49;100.00;98686.80;105767;1259;73761;-72
2023/04/27 02:15:03;;;;;;;36.10;17.70;;;;;;;6.37;100.00;98688.73;105878;1254;62041;-72
2023/04/27 02:17:33;;;;;;;47.10;29.10;;;;;;;6.37;100.00;98694.64;105856;1255;61314;-70
2023/04/27 02:20:00;;;;;;;73.80;43.90;;;;;;;6.50;100.00;98691.13;105687;1263;74546;-71
2023/04/27 02:22:26;;;;;;;137.90;66.70;;;;;;;6.53;100.00;98692.88;105832;1260;69650;-68
2023/04/27 02:24:53;;;;;;;30.50;17.10;;;;;;;6.52;100.00;98691.84;105839;1257;71755;-75
2023/04/27 02:27:20;;;;;;;22.60;13.40;;;;;;;6.55;100.00;98693.59;105794;1253;62066;-72
2023/04/27 02:29:47;;;;;;;26.80;14.20;;;;;;;6.57;100.00;98692.60;105730;1254;61237;-79
2023/04/27 02:32:15;;;;;;;17.10;9.70;;;;;;;6.34;100.00;98687.52;105724;1257;74546;-76
2023/04/27 02:34:41;;;;;;;29.30;14.90;;;;;;;6.57;100.00;98690.15;106018;1253;68971;-73
2023/04/27 02:37:08;;;;;;;21.00;12.00;;;;;;;6.76;100.00;98690.00;105955;1252;71899;-74
2023/04/27 02:39:35;;;;;;;69.50;33.90;;;;;;;6.82;100.00;98693.85;105835;1257;61269;-75
2023/04/27 02:42:05;;;;;;;55.20;28.40;;;;;;;6.75;100.00;98699.59;106068;1256;61237;-73
2023/04/27 02:44:32;;;;;;;199.60;139.70;;;;;;;6.76;100.00;98704.46;105955;1257;74538;-71
2023/04/27 02:46:59;;;;;;;18.30;16.60;;;;;;;6.75;100.00;98709.87;105842;1262;68762;-71
2023/04/27 02:49:26;;;;;;;39.50;25.10;;;;;;;6.87;100.00;98709.81;105894;1257;73752;-71
2023/04/27 02:51:53;;;;;;;142.80;71.10;;;;;;;6.65;100.00;98717.50;105868;1257;61316;-70
2023/04/27 02:54:19;;;;;;;13.20;8.40;;;;;;;6.70;100.00;98715.38;105908;1258;61281;-72
2023/04/27 02:56:46;;;;;;;13.90;8.70;;;;;;;6.63;100.00;98702.01;106034;1261;75727;-71
2023/04/27 02:59:13;;;;;;;8.20;5.50;;;;;;;6.58;100.00;98712.09;105866;1258;69703;-69
2023/04/27 03:01:40;;;;;;;13.90;8.20;;;;;;;6.56;100.00;98712.42;105942;1258;72612;-70
2023/04/27 03:04:07;;;;;;;16.30;10.10;;;;;;;6.52;100.00;98715.56;105660;1263;61321;-72
2023/04/27 03:06:35;;;;;;;54.60;25.70;;;;;;;6.61;100.00;98719.21;105837;1255;61241;-71
2023/04/27 03:09:02;;;;;;;7.10;6.10;;;;;;;6.73;100.00;98718.08;105902;1254;72459;-74
2023/04/27 03:11:29;;;;;;;5.80;5.20;;;;;;;6.68;100.00;98719.19;106155;1257;68636;-71
2023/04/27 03:13:57;;;;;;;8.40;7.60;;;;;;;6.69;100.00;98718.49;106106;1255;73463;-72
2023/04/27 03:16:24;;;;;;;5.90;5.20;;;;;;;6.53;100.00;98720.28;106099;1256;61295;-74
2023/04/27 03:18:50;;;;;;;4.50;4.20;;;;;;;6.58;100.00;98727.65;105800;1253;61330;-71
2023/04/27 03:21:17;;;;;;;32.90;18.60;;;;;;;6.60;100.00;98725.23;106012;1257;75296;-69
2023/04/27 03:23:44;;;;;;;22.80;13.10;;;;;;;6.60;100.00;98724.96;105997;1256;67935;-71
2023/04/27 03:26:12;;;;;;;26.40;14.80;;;;;;;6.69;100.00;98725.13;105873;1259;73196;-75
2023/04/27 03:28:41;;;;;;;8.80;6.50;;;;;;;6.67;100.00;98723.55;105808;1257;62083;-72
2023/04/27 03:31:10;;;;;;;11.70;7.80;;;;;;;6.53;100.00;98722.15;106176;1257;61251;-73
2023/04/27 03:33:37;;;;;;;54.10;31.60;;;;;;;6.45;100.00;98722.85;106174;1256;75685;-72
2023/04/27 03:36:05;;;;;;;10.20;7.00;;;;;;;6.34;100.00;98724.14;106096;1254;68853;-73
2023/04/27 03:38:32;;;;;;;18.00;15.40;;;;;;;6.45;100.00;98731.70;106051;1256;73826;-72
2023/04/27 03:40:59;;;;;;;8.00;7.10;;;;;;;6.48;100.00;98737.23;105863;1254;62123;-73
2023/04/27 03:43:26;;;;;;;11.00;8.60;;;;;;;6.59;100.00;98736.41;105878;1257;61282;-70
2023/04/27 03:45:53;;;;;;;46.60;24.00;;;;;;;6.52;100.00;98742.78;105864;1255;74831;-71
2023/04/27 03:48:20;;;;;;;92.90;47.90;;;;;;;6.50;100.00;98740.77;106153;1256;68624;-70
2023/04/27 03:50:47;;;;;;;45.10;24.20;;;;;;;6.57;100.00;98748.55;106036;1256;72050;-76
2023/04/27 03:53:15;;;;;;;34.20;19.70;;;;;;;6.58;100.00;98754.79;105888;1254;62212;-72
2023/04/27 03:55:43;;;;;;;14.10;9.20;;;;;;;6.50;100.00;98750.00;106156;1254;61185;-71
2023/04/27 03:58:10;;;;;;;9.10;7.00;;;;;;;6.56;100.00;98754.94;106131;1254;74535;-75
2023/04/27 04:00:43;;;;;;;8.80;6.20;;;;;;;6.60;100.00;98755.20;106150;1260;69639;-72
2023/04/27 04:03:11;;;;;;;17.90;12.10;;;;;;;6.58;100.00;98758.10;106167;1254;73002;-72
2023/04/27 04:05:38;;;;;;;11.20;8.80;;;;;;;6.60;100.00;98757.17;106154;1254;62236;-72
2023/04/27 04:08:05;;;;;;;7.50;6.80;;;;;;;6.59;100.00;98759.72;105991;1254;62268;-76
2023/04/27 04:10:33;;;;;;;6.20;5.20;;;;;;;6.52;100.00;98759.15;106073;1266;74761;-74
2023/04/27 04:13:00;;;;;;;8.10;7.30;;;;;;;6.53;100.00;98762.73;106032;1256;68570;-71
2023/04/27 04:15:27;;;;;;;5.60;5.00;;;;;;;6.67;100.00;98764.09;106082;1254;71898;-73
2023/04/27 04:17:54;;;;;;;4.10;3.80;;;;;;;6.66;100.00;98768.66;106169;1254;62197;-73
2023/04/27 04:20:21;;;;;;;5.00;4.50;;;;;;;6.50;100.00;98766.05;106214;1254;61245;-74
2023/04/27 04:22:48;;;;;;;6.80;4.20;;;;;;;6.40;100.00;98769.76;106238;1254;75012;-72
2023/04/27 04:25:15;;;;;;;14.40;12.60;;;;;;;6.55;100.00;98779.29;106128;1257;68705;-70
2023/04/27 04:27:42;;;;;;;14.60;12.10;;;;;;;6.61;100.00;98780.80;106017;1258;70362;-71
2023/04/27 04:30:10;;;;;;;60.80;49.90;;;;;;;6.65;100.00;98778.45;105887;1254;61352;-72
2023/04/27 04:32:39;;;;;;;37.60;24.90;;;;;;;6.82;100.00;98779.95;105910;1258;61281;-76
2023/04/27 04:35:06;;;;;;;37.30;20.90;;;;;;;6.71;100.00;98777.14;106129;1260;75785;-75
2023/04/27 04:37:34;;;;;;;15.20;9.30;;;;;;;6.61;100.00;98777.49;106042;1254;68775;-74
2023/04/27 04:40:08;;;;;;;8.00;6.20;;;;;;;6.63;100.00;98781.70;106110;1254;72560;-75
2023/04/27 04:42:36;;;;;;;23.30;16.30;;;;;;;6.70;100.00;98776.13;107694;1254;61375;-74
2023/04/27 04:45:05;;;;;;;6.90;6.20;;;;;;;6.77;100.00;98786.42;107550;1253;60233;-77
2023/04/27 04:47:33;;;;;;;5.40;4.90;;;;;;;6.78;100.00;98784.12;106296;1261;73108;-77
2023/04/27 04:50:00;;;;;;;7.30;4.40;;;;;;;6.91;100.00;98787.22;106456;1257;68947;-76
2023/04/27 04:52:29;;;;;;;7.80;6.70;;;;;;;6.83;100.00;98787.39;106460;1256;73596;-73
2023/04/27 04:54:56;;;;;;;7.00;5.20;;;;;;;6.91;100.00;98795.06;106307;1257;61244;-75
2023/04/27 04:57:23;;;;;;;5.20;4.60;;;;;;;6.98;100.00;98798.02;106366;1257;60588;-73
2023/04/27 04:59:50;;;;;;;6.10;4.60;;;;;;;6.91;100.00;98795.21;106167;1257;74607;-76
2023/04/27 05:02:17;;;;;;;5.50;4.70;;;;;;;7.01;100.00;98791.61;106381;1254;69787;-77
2023/04/27 05:04:44;;;;;;;6.90;5.50;;;;;;;7.18;100.00;98804.19;106285;1254;71843;-77
2023/04/27 05:07:11;;;;;;;5.50;5.00;;;;;;;7.18;100.00;98805.88;106410;1257;61535;-76
2023/04/27 05:09:41;;;;;;;5.20;4.70;;;;;;;7.16;100.00;98805.65;106215;1254;61426;-75
2023/04/27 05:12:09;;;;;;;6.00;4.90;;;;;;;7.22;100.00;98805.98;106137;1257;74820;-79
2023/04/27 05:14:36;;;;;;;5.90;4.90;;;;;;;7.13;100.00;98806.58;106256;1254;69613;-75
2023/04/27 05:17:03;;;;;;;6.00;5.10;;;;;;;7.42;100.00;98809.77;106174;1254;73840;-77
2023/04/27 05:19:30;;;;;;;22.70;20.50;;;;;;;7.43;100.00;98809.90;106164;1254;61921;-75
2023/04/27 05:21:57;;;;;;;12.80;11.20;;;;;;;7.38;100.00;98803.60;106048;1255;61352;-76
2023/04/27 05:24:25;;;;;;;7.20;5.60;;;;;;;7.46;100.00;98808.23;106021;1255;74467;-77
2023/04/27 05:26:52;;;;;;;9.40;7.40;;;;;;;7.54;100.00;98805.10;105961;1258;68409;-78
2023/04/27 05:29:20;;;;;;;17.00;12.10;;;;;;;7.50;100.00;98810.34;106114;1254;70358;-77
2023/04/27 05:31:47;;;;;;;11.90;7.50;;;;;;;7.44;100.00;98812.31;106070;1258;61416;-78
2023/04/27 05:34:16;;;;;;;14.50;6.30;;;;;;;7.46;100.00;98818.59;106319;1253;61300;-77
2023/04/27 05:36:43;;;;;;;7.60;6.70;;;;;;;7.58;100.00;98823.83;106175;1254;75100;-78
2023/04/27 05:39:10;;;;;;;9.30;5.90;;;;;;;7.88;100.00;98824.55;106089;1254;67773;-75
2023/04/27 05:41:37;;;;;;;8.00;6.60;;;;;;;7.85;100.00;98821.20;106343;1256;73822;-72
2023/04/27 05:44:04;;;;;;;6.20;4.90;;;;;;;7.71;100.00;98818.41;106333;1254;61960;-78
2023/04/27 05:46:31;;;;;;;8.40;6.20;;;;;;;7.70;100.00;98823.10;106371;1254;61174;-75
2023/04/27 05:48:58;;;;;;;10.00;7.80;;;;;;;7.78;100.00;98827.55;106197;1254;73586;-78
2023/04/27 05:51:25;;;;;;;10.20;7.60;;;;;;;7.82;100.00;98828.48;106246;1254;69443;-75
2023/04/27 05:53:54;;;;;;;11.70;7.70;;;;;;;7.88;100.00;98828.92;106344;1256;70905;-77
2023/04/27 05:56:21;;;;;;;9.40;5.90;;;;;;;8.00;100.00;98833.15;106364;1254;61241;-77
2023/04/27 05:58:48;;;;;;;7.00;5.90;;;;;;;8.23;100.00;98832.95;106439;1256;61363;-79
2023/04/27 06:01:15;;;;;;;6.90;6.20;;;;;;;8.09;100.00;98834.61;106380;1254;73509;-77
2023/04/27 06:03:41;;;;;;;8.20;5.50;;;;;;;8.12;100.00;98836.51;106327;1253;67628;-76
2023/04/27 06:06:09;;;;;;;6.90;5.60;;;;;;;7.89;100.00;98839.45;106423;1253;72034;-79
2023/04/27 06:08:38;;;;;;;10.40;8.10;;;;;;;8.03;100.00;98838.46;106369;1254;61932;-77
2023/04/27 06:11:05;;;;;;;6.00;4.80;;;;;;;8.06;100.00;98841.27;106465;1253;61349;-78
2023/04/27 06:13:33;;;;;;;9.80;5.80;;;;;;;7.86;100.00;98841.23;106433;1256;74797;-79
2023/04/27 06:16:00;;;;;;;11.90;7.90;;;;;;;7.82;100.00;98840.78;106658;1254;69317;-78
2023/04/27 06:18:27;;;;;;;9.40;6.80;;;;;;;7.98;100.00;98847.45;107004;1256;73726;-77
2023/04/27 06:21:00;;;;;;;8.10;6.10;;;;;;;8.11;100.00;98849.44;106358;1254;61519;-77
2023/04/27 06:23:27;;;;;;;9.60;6.90;;;;;;;8.17;100.00;98848.63;107421;1252;61253;-77
2023/04/27 06:25:54;;;;;;;10.20;6.80;;;;;;;8.13;100.00;98846.20;106765;1254;75572;-76
2023/04/27 06:28:22;;;;;;;21.30;13.10;;;;;;;8.18;100.00;98844.41;106238;1256;67656;-77
2023/04/27 06:30:49;;;;;;;43.00;23.50;;;;;;;8.14;100.00;98851.02;106144;1253;73660;-77
2023/04/27 06:33:16;;;;;;;27.40;15.20;;;;;;;8.29;100.00;98856.65;106106;1253;61278;-80
2023/04/27 06:35:43;;;;;;;13.30;9.70;;;;;;;8.36;100.00;98858.35;106286;1253;61969;-80
2023/04/27 06:38:13;;;;;;;13.30;9.20;;;;;;;8.29;100.00;98859.81;106234;1254;75404;-79
2023/04/27 06:40:40;;;;;;;12.60;8.80;;;;;;;8.03;100.00;98859.89;106525;1255;67610;-75
2023/04/27 06:43:07;;;;;;;14.10;9.10;;;;;;;8.25;100.00;98861.16;106212;1253;73805;-77
2023/04/27 06:45:34;;;;;;;17.50;12.60;;;;;;;8.33;100.00;98866.79;106377;1255;62021;-74
2023/04/27 06:48:01;;;;;;;12.60;9.80;;;;;;;8.34;100.00;98867.59;106395;1253;61281;-78
2023/04/27 06:50:29;;;;;;;12.00;9.40;;;;;;;8.52;100.00;98865.56;106311;1257;75792;-80
2023/04/27 06:52:56;;;;;;;18.20;10.90;;;;;;;8.47;100.00;98858.03;106387;1255;68555;-77
2023/04/27 06:55:23;;;;;;;12.70;9.90;;;;;;;8.27;100.00;98865.23;106229;1253;73545;-80
2023/04/27 06:57:50;;;;;;;13.60;6.70;;;;;;;8.36;100.00;98863.66;106179;1253;61398;-78
2023/04/27 07:00:17;;;;;;;6.90;5.90;;;;;;;8.21;100.00;98871.70;106380;1253;61320;-76
2023/04/27 07:02:45;;;;;;;9.90;6.40;;;;;;;8.08;100.00;98872.98;106668;1255;75385;-77
2023/04/27 07:05:12;;;;;;;9.90;8.00;;;;;;;8.27;100.00;98875.60;106827;1253;69902;-79
2023/04/27 07:07:43;;;;;;;12.70;6.60;;;;;;;8.40;100.00;98874.48;106567;1254;73418;-78
2023/04/27 07:10:10;;;;;;;8.40;7.50;;;;;;;8.59;100.00;98879.98;106690;1253;61421;-78
2023/04/27 07:12:41;;;;;;;8.40;7.30;;;;;;;8.10;100.00;98886.63;106714;1253;61285;-80
2023/04/27 07:15:09;;;;;;;13.20;8.60;;;;;;;8.08;100.00;98884.05;106183;1253;75368;-79
2023/04/27 07:17:36;;;;;;;15.40;7.00;;;;;;;8.03;100.00;98882.46;106133;1253;70332;-77
2023/04/27 07:20:04;;;;;;;10.80;7.00;;;;;;;7.99;100.00;98887.98;106028;1260;71768;-78
2023/04/27 07:22:32;;;;;;;14.20;9.00;;;;;;;8.05;100.00;98889.30;106135;1253;61336;-78
2023/04/27 07:24:59;;;;;;;12.30;7.40;;;;;;;8.14;100.00;98888.71;106208;1253;61337;-73
2023/04/27 07:27:26;;;;;;;8.30;6.30;;;;;;;8.15;100.00;98888.87;106158;1254;75748;-78
2023/04/27 07:29:53;;;;;;;12.60;7.30;;;;;;;8.07;100.00;98892.91;106276;1257;69398;-78
2023/04/27 07:32:21;;;;;;;13.30;7.90;;;;;;;8.24;100.00;98896.59;106255;1253;73666;-78
2023/04/27 07:34:49;;;;;;;11.90;7.20;;;;;;;8.19;100.00;98892.86;106096;1253;62119;-76
2023/04/27 07:37:21;;;;;;;13.20;8.10;;;;;;;8.03;100.00;98901.11;106173;1253;61270;-78
2023/04/27 07:39:49;;;;;;;12.10;7.50;;;;;;;8.03;100.00;98902.29;106299;1254;73301;-76
2023/04/27 07:42:17;;;;;;;15.90;9.40;;;;;;;8.01;100.00;98907.72;107796;1253;69702;-77
2023/04/27 07:44:44;;;;;;;11.10;8.60;;;;;;;8.22;100.00;98906.31;108066;1253;71326;-78
2023/04/27 07:47:12;;;;;;;19.10;11.00;;;;;;;8.18;100.00;98909.42;106902;1257;61287;-79
2023/04/27 07:49:39;;;;;;;11.80;9.50;;;;;;;8.15;100.00;98915.45;106088;1254;61215;-78
2023/04/27 07:52:06;;;;;;;10.30;7.00;;;;;;;8.16;100.00;98912.14;106160;1256;75641;-75
2023/04/27 07:54:34;;;;;;;15.10;11.00;;;;;;;7.98;100.00;98910.41;106229;1254;69285;-76
2023/04/27 07:57:01;;;;;;;14.40;10.10;;;;;;;7.91;100.00;98915.27;106222;1254;73200;-79
2023/04/27 07:59:29;;;;;;;18.40;11.30;;;;;;;8.07;100.00;98916.59;106395;1256;61726;-79
2023/04/27 08:01:55;;;;;;;9.80;6.10;;;;;;;8.07;100.00;98911.08;106283;1254;61301;-77
2023/04/27 08:04:42;;;;;;;7.10;6.30;;;;;;;8.21;100.00;98916.79;106239;1256;74441;-77
2023/04/27 08:07:10;;;;;;;19.30;17.00;;;;;;;8.26;100.00;98920.88;106051;1253;69257;-76
2023/04/27 08:09:37;;;;;;;13.60;10.70;;;;;;;8.43;100.00;98917.73;106420;1257;73750;-78
2023/04/27 08:12:04;;;;;;;7.50;6.60;;;;;;;8.35;100.00;98918.14;106275;1253;61939;-76
2023/04/27 08:14:34;;;;;;;16.20;7.30;;;;;;;8.38;100.00;98922.07;106370;1253;61211;-75
2023/04/27 08:17:01;;;;;;;14.00;9.30;;;;;;;8.58;100.00;98926.42;106391;1253;74101;-77
2023/04/27 08:19:28;;;;;;;15.50;9.20;;;;;;;8.59;100.00;98922.64;106548;1253;69762;-77
2023/04/27 08:21:55;;;;;;;15.20;9.20;;;;;;;8.83;100.00;98921.90;106111;1253;73499;-77
2023/04/27 08:24:22;;;;;;;19.50;12.80;;;;;;;9.02;100.00;98929.09;106587;1253;61345;-76
2023/04/27 08:26:48;;;;;;;15.30;10.50;;;;;;;8.98;100.00;98935.64;106322;1257;61238;-77
2023/04/27 08:29:16;;;;;;;11.20;7.50;;;;;;;9.06;100.00;98928.23;106255;1256;75479;-73
2023/04/27 08:31:58;;;;;;;15.90;9.50;;;;;;;8.94;100.00;98932.20;106305;1257;69798;-78
2023/04/27 08:34:25;;;;;;;14.60;8.20;;;;;;;8.67;100.00;98930.40;106053;1255;72655;-72
2023/04/27 08:36:53;;;;;;;16.60;10.20;;;;;;;8.60;100.00;98926.54;106100;1253;61369;-75
2023/04/27 08:39:20;;;;;;;18.30;9.10;;;;;;;8.74;100.00;98931.05;106212;1253;62361;-78
2023/04/27 08:41:47;;;;;;;5.70;5.00;;;;;;;8.70;100.00;98927.16;106346;1253;73796;-78
2023/04/27 08:44:14;;;;;;;14.10;7.80;;;;;;;8.92;100.00;98928.17;106533;1256;68511;-77
2023/04/27 08:46:41;;;;;;;14.20;9.30;;;;;;;9.21;100.00;98931.02;106504;1256;71194;-77
2023/04/27 08:49:08;;;;;;;8.60;6.30;;;;;;;9.17;100.00;98926.18;106283;1254;61321;-77
2023/04/27 08:51:35;;;;;;;18.70;11.50;;;;;;;9.39;100.00;98933.45;106282;1253;61267;-77
2023/04/27 08:54:02;;;;;;;14.60;9.50;;;;;;;9.49;100.00;98932.27;106287;1256;74717;-75
2023/04/27 08:56:31;;;;;;;19.90;12.20;;;;;;;9.31;100.00;98934.60;106465;1254;67794;-77
2023/04/27 08:58:59;;;;;;;8.50;6.80;;;;;;;9.32;100.00;98932.47;106765;1254;72081;-74
2023/04/27 09:01:26;;;;;;;17.20;11.70;;;;;;;9.18;100.00;98936.73;106155;1253;62378;-72
2023/04/27 09:03:57;;;;;;;13.50;6.40;;;;;;;9.20;100.00;98936.58;106109;1253;156032;-75
2023/04/27 09:06:31;;;;;;;17.40;10.80;;;;;;;9.13;100.00;98945.16;106467;1253;75771;-77
2023/04/27 09:08:58;;;;;;;14.90;8.90;;;;;;;9.08;100.00;98945.17;106660;1253;69978;-78
2023/04/27 09:11:33;;;;;;;12.10;7.80;;;;;;;8.95;100.00;98946.33;106680;1256;72396;-71
2023/04/27 09:14:20;;;;;;;14.90;10.50;;;;;;;8.93;100.00;98953.42;106703;1255;62046;-78
2023/04/27 09:16:58;;;;;;;9.40;6.40;;;;;;;8.70;100.00;98956.69;106973;1255;61211;-76
2023/04/27 09:19:27;;;;;;;20.50;12.30;;;;;;;8.68;100.00;98952.35;106361;1259;74483;-75
2023/04/27 09:22:07;;;;;;;15.50;8.80;;;;;;;8.77;100.00;98954.83;106788;1256;69622;-75
2023/04/27 09:24:35;;;;;;;15.90;8.90;;;;;;;8.70;100.00;98947.48;106467;1253;72705;-76
2023/04/27 09:27:02;;;;;;;21.00;11.70;;;;;;;8.89;100.00;98954.27;106622;1253;61309;-73
2023/04/27 09:29:35;;;;;;;12.10;7.50;;;;;;;9.00;100.00;98949.80;106783;1254;61207;-75
2023/04/27 09:32:14;;;;;;;9.90;7.00;;;;;;;9.00;100.00;98947.38;105960;1259;75158;-75
2023/04/27 09:34:43;;;;;;;12.10;8.90;;;;;;;9.22;100.00;98952.91;106221;1253;68829;-75
2023/04/27 09:37:10;;;;;;;12.90;7.60;;;;;;;9.61;100.00;98953.90;106440;1253;73669;-73
2023/04/27 09:39:37;;;;;;;10.60;7.10;;;;;;;9.76;100.00;98951.73;106216;1253;61234;-77
2023/04/27 09:42:04;;;;;;;12.50;8.00;;;;;;;9.79;100.00;98960.67;106365;1253;62173;-75
2023/04/27 09:44:31;;;;;;;16.80;8.60;;;;;;;9.88;100.00;98960.08;106503;1257;74587;-78
2023/04/27 09:46:58;;;;;;;15.60;8.20;;;;;;;9.92;100.00;98964.16;106367;1253;68719;-77
2023/04/27 09:49:26;;;;;;;13.30;7.30;;;;;;;10.07;100.00;98959.48;106390;1254;73428;-74
2023/04/27 09:51:55;;;;;;;7.80;5.60;;;;;;;9.87;100.00;98956.45;106297;1253;62349;-73
2023/04/27 09:54:23;;;;;;;12.10;6.60;;;;;;;9.79;100.00;98958.91;106522;1253;61324;-76
2023/04/27 09:57:07;;;;;;;17.30;9.10;;;;;;;9.72;100.00;98965.70;106287;1253;75553;-75
2023/04/27 09:59:48;;;;;;;15.10;8.30;;;;;;;9.54;100.00;98962.57;106375;1259;68648;-75
2023/04/27 10:02:22;;;;;;;18.40;9.20;;;;;;;9.96;100.00;98958.42;106126;1253;72550;-76
2023/04/27 10:05:12;;;;;;;23.90;9.50;;;;;;;10.00;100.00;98956.61;105976;1253;61688;-74
2023/04/27 10:07:42;;;;;;;25.90;11.20;;;;;;;10.05;100.00;98958.02;106095;1253;62296;-75
2023/04/27 10:10:16;;;;;;;23.70;10.80;;;;;;;10.01;100.00;98952.75;105764;1254;75099;-77
2023/04/27 10:12:42;;;;;;;17.20;9.30;;;;;;;9.94;100.00;98953.11;106267;1253;69940;-75
2023/04/27 10:15:15;;;;;;;18.70;9.90;;;;;;;9.80;100.00;98953.83;106296;1253;73059;-74
2023/04/27 10:17:49;;;;;;;17.60;10.20;;;;;;;9.93;100.00;98953.16;106225;1253;61980;-76
2023/04/27 10:20:27;;;;;;;11.90;7.20;;;;;;;9.86;100.00;98948.70;106228;1252;61097;-73
2023/04/27 10:22:54;;;;;;;;;;;;;;;9.79;100.00;98947.13;106379;1254;74075;-76
2023/04/27 10:25:25;;;;;;;10.70;5.50;;;;;;;9.62;100.00;98943.41;106303;1254;68928;-75
2023/04/27 10:27:55;;;;;;;14.80;8.10;;;;;;;9.81;100.00;98953.14;106066;1254;73784;-74
2023/04/27 10:30:23;;;;;;;7.80;5.80;;;;;;;9.87;100.00;98957.86;106147;1255;62212;-73
2023/04/27 10:32:57;;;;;;;10.80;7.10;;;;;;;9.88;100.00;98954.55;106308;1257;61274;-75
2023/04/27 10:35:32;;;;;;;13.70;7.10;;;;;;;9.96;100.00;98962.25;106109;1253;74383;-74
2023/04/27 10:38:19;;;;;;;13.90;6.80;;;;;;;9.87;100.00;98957.58;106148;1255;69626;-74
2023/04/27 10:41:04;;;;;;;9.00;6.60;;;;;;;10.17;99.90;98964.16;108217;1253;73030;-75
2023/04/27 10:43:35;;;;;;;14.30;9.30;;;;;;;10.32;100.00;98969.32;108007;1257;62191;-75
2023/04/27 10:46:12;;;;;;;14.80;9.60;;;;;;;10.51;98.11;98959.89;106290;1259;61644;-76
2023/04/27 10:48:42;;;;;;;10.40;7.10;;;;;;;10.54;96.47;98969.24;106011;1263;74582;-73
2023/04/27 10:51:14;;;;;;;15.50;8.60;;;;;;;10.40;96.71;98977.38;105953;1257;68856;-75
2023/04/27 10:53:41;;;;;;;18.10;11.30;;;;;;;10.80;95.42;98985.45;105772;1257;73568;-77
2023/04/27 10:56:07;;;;;;;14.40;8.20;;;;;;;10.74;96.09;98987.48;105823;1260;62946;-75
2023/04/27 10:58:42;;;;;;;8.10;6.70;;;;;;;10.91;94.43;98995.06;106189;1257;61997;-76
2023/04/27 11:01:25;;;;;;;12.90;7.60;;;;;;;11.08;88.91;99004.38;106473;1256;73652;-75
2023/04/27 11:03:56;;;;;;;11.80;7.20;;;;;;;11.14;89.58;98998.21;105824;1260;69506;-75
2023/04/27 11:06:23;;;;;;;17.10;8.20;;;;;;;11.24;87.68;98996.20;105762;1256;72482;-75
2023/04/27 11:08:50;;;;;;;11.00;6.70;;;;;;;10.90;88.79;99001.55;105821;1256;62741;-75
2023/04/27 11:11:19;;;;;;;10.60;5.20;;;;;;;10.99;89.47;98996.70;105787;1259;61310;-77
2023/04/27 11:13:51;;;;;;;;;;;;;;;11.13;87.47;99002.88;105835;1253;75352;-74
2023/04/27 11:16:18;;;;;;;17.20;7.30;;;;;;;11.06;86.00;98997.40;105960;1253;69030;-75
2023/04/27 11:18:45;;;;;;;11.70;6.20;;;;;;;11.26;84.68;98997.92;105932;1257;73707;-76
2023/04/27 11:21:22;;;;;;;18.00;8.30;;;;;;;11.13;84.80;98996.33;105867;1253;61305;-75
2023/04/27 11:23:49;;;;;;;13.30;7.20;;;;;;;11.08;85.16;98994.88;106056;1253;61360;-73